sensor_id;sensor_type;location;lat;lon;timestamp;P1;durP1;ratioP1;P2;durP2;ratioP2
79249;SDS011;68679;51.030;7.584;2024-02-15T00:00:58;2.35;;;1.10;;
79249;SDS011;68679;51.030;7.584;2024-02-15T00:03:25;2.30;;;1.10;;
79249;SDS011;68679;51.030;7.584;2024-02-15T00:05:50;1.92;;;1.05;;
79249;SDS011;68679;51.030;7.584;2024-02-15T00:08:15;2.70;;;1.60;;
79249;SDS011;68679;51.030;7.584;2024-02-15T00:10:41;2.03;;;1.02;;
79249;SDS011;68679;51.030;7.584;2024-02-15T00:13:06;2.87;;;1.33;;
79249;SDS011;68679;51.030;7.584;2024-02-15T00:15:32;1.27;;;0.90;;
79249;SDS011;68679;51.030;7.584;2024-02-15T00:17:59;3.80;;;0.90;;
79249;SDS011;68679;51.030;7.584;2024-02-15T00:20:24;2.25;;;1.30;;
79249;SDS011;68679;51.030;7.584;2024-02-15T00:22:50;1.60;;;0.90;;
79249;SDS011;68679;51.030;7.584;2024-02-15T00:25:17;3.03;;;1.25;;
79249;SDS011;68679;51.030;7.584;2024-02-15T00:27:42;3.58;;;1.38;;
79249;SDS011;68679;51.030;7.584;2024-02-15T00:30:08;2.50;;;1.40;;
79249;SDS011;68679;51.030;7.584;2024-02-15T00:32:34;2.28;;;1.10;;
79249;SDS011;68679;51.030;7.584;2024-02-15T00:34:59;3.85;;;1.40;;
79249;SDS011;68679;51.030;7.584;2024-02-15T00:37:24;2.03;;;1.00;;
79249;SDS011;68679;51.030;7.584;2024-02-15T00:39:50;2.23;;;1.10;;
79249;SDS011;68679;51.030;7.584;2024-02-15T00:42:15;2.00;;;0.90;;
79249;SDS011;68679;51.030;7.584;2024-02-15T00:44:41;1.75;;;1.00;;
79249;SDS011;68679;51.030;7.584;2024-02-15T00:47:07;3.60;;;1.30;;
79249;SDS011;68679;51.030;7.584;2024-02-15T00:49:34;2.33;;;1.05;;
79249;SDS011;68679;51.030;7.584;2024-02-15T00:52:00;2.17;;;1.10;;
79249;SDS011;68679;51.030;7.584;2024-02-15T00:54:26;1.73;;;1.00;;
79249;SDS011;68679;51.030;7.584;2024-02-15T00:56:51;2.80;;;1.30;;
79249;SDS011;68679;51.030;7.584;2024-02-15T00:59:16;2.93;;;1.43;;
79249;SDS011;68679;51.030;7.584;2024-02-15T01:01:41;3.00;;;1.40;;
79249;SDS011;68679;51.030;7.584;2024-02-15T01:04:07;2.47;;;1.33;;
79249;SDS011;68679;51.030;7.584;2024-02-15T01:06:32;2.10;;;1.10;;
79249;SDS011;68679;51.030;7.584;2024-02-15T01:08:57;1.88;;;1.13;;
79249;SDS011;68679;51.030;7.584;2024-02-15T01:11:26;3.50;;;1.48;;
79249;SDS011;68679;51.030;7.584;2024-02-15T01:13:53;2.22;;;1.40;;
79249;SDS011;68679;51.030;7.584;2024-02-15T01:16:18;1.80;;;1.20;;
79249;SDS011;68679;51.030;7.584;2024-02-15T01:18:43;2.65;;;1.30;;
79249;SDS011;68679;51.030;7.584;2024-02-15T01:21:09;3.43;;;1.20;;
79249;SDS011;68679;51.030;7.584;2024-02-15T01:23:36;2.80;;;1.30;;
79249;SDS011;68679;51.030;7.584;2024-02-15T01:26:01;3.00;;;1.60;;
79249;SDS011;68679;51.030;7.584;2024-02-15T01:28:27;2.95;;;1.23;;
79249;SDS011;68679;51.030;7.584;2024-02-15T01:30:52;2.35;;;1.20;;
79249;SDS011;68679;51.030;7.584;2024-02-15T01:33:19;5.15;;;1.73;;
79249;SDS011;68679;51.030;7.584;2024-02-15T01:35:45;2.65;;;1.25;;
79249;SDS011;68679;51.030;7.584;2024-02-15T01:38:10;2.70;;;1.40;;
79249;SDS011;68679;51.030;7.584;2024-02-15T01:40:35;3.30;;;1.30;;
79249;SDS011;68679;51.030;7.584;2024-02-15T01:43:00;3.80;;;1.50;;
79249;SDS011;68679;51.030;7.584;2024-02-15T01:45:26;7.30;;;1.40;;
79249;SDS011;68679;51.030;7.584;2024-02-15T01:47:53;3.58;;;1.48;;
79249;SDS011;68679;51.030;7.584;2024-02-15T01:50:18;3.95;;;1.80;;
79249;SDS011;68679;51.030;7.584;2024-02-15T01:52:46;2.90;;;1.45;;
79249;SDS011;68679;51.030;7.584;2024-02-15T01:55:13;6.47;;;1.55;;
79249;SDS011;68679;51.030;7.584;2024-02-15T01:57:40;3.70;;;1.80;;
79249;SDS011;68679;51.030;7.584;2024-02-15T02:00:09;3.17;;;1.30;;
79249;SDS011;68679;51.030;7.584;2024-02-15T02:02:38;3.40;;;1.63;;
79249;SDS011;68679;51.030;7.584;2024-02-15T02:05:06;2.72;;;1.60;;
79249;SDS011;68679;51.030;7.584;2024-02-15T02:07:32;3.17;;;1.40;;
79249;SDS011;68679;51.030;7.584;2024-02-15T02:09:58;2.83;;;1.50;;
79249;SDS011;68679;51.030;7.584;2024-02-15T02:12:23;5.73;;;1.90;;
79249;SDS011;68679;51.030;7.584;2024-02-15T02:14:52;5.30;;;1.95;;
79249;SDS011;68679;51.030;7.584;2024-02-15T02:17:18;2.95;;;1.67;;
79249;SDS011;68679;51.030;7.584;2024-02-15T02:19:45;2.47;;;1.60;;
79249;SDS011;68679;51.030;7.584;2024-02-15T02:22:10;4.15;;;1.75;;
79249;SDS011;68679;51.030;7.584;2024-02-15T02:24:40;2.83;;;1.52;;
79249;SDS011;68679;51.030;7.584;2024-02-15T02:27:43;2.50;;;1.48;;
79249;SDS011;68679;51.030;7.584;2024-02-15T02:30:12;3.83;;;1.55;;
79249;SDS011;68679;51.030;7.584;2024-02-15T02:32:44;2.85;;;1.85;;
79249;SDS011;68679;51.030;7.584;2024-02-15T02:35:10;2.83;;;1.70;;
79249;SDS011;68679;51.030;7.584;2024-02-15T02:37:41;4.85;;;1.83;;
79249;SDS011;68679;51.030;7.584;2024-02-15T02:40:07;4.57;;;1.92;;
79249;SDS011;68679;51.030;7.584;2024-02-15T02:42:35;4.90;;;1.65;;
79249;SDS011;68679;51.030;7.584;2024-02-15T02:47:36;3.50;;;1.60;;
79249;SDS011;68679;51.030;7.584;2024-02-15T02:50:01;2.90;;;1.63;;
79249;SDS011;68679;51.030;7.584;2024-02-15T02:52:28;3.95;;;1.30;;
79249;SDS011;68679;51.030;7.584;2024-02-15T02:54:53;2.43;;;1.43;;
79249;SDS011;68679;51.030;7.584;2024-02-15T02:57:18;3.50;;;1.97;;
79249;SDS011;68679;51.030;7.584;2024-02-15T02:59:43;5.60;;;2.00;;
79249;SDS011;68679;51.030;7.584;2024-02-15T03:02:09;3.03;;;1.40;;
79249;SDS011;68679;51.030;7.584;2024-02-15T03:04:35;4.25;;;1.73;;
79249;SDS011;68679;51.030;7.584;2024-02-15T03:07:00;3.13;;;1.73;;
79249;SDS011;68679;51.030;7.584;2024-02-15T03:09:26;3.03;;;1.40;;
79249;SDS011;68679;51.030;7.584;2024-02-15T03:11:54;3.50;;;1.73;;
79249;SDS011;68679;51.030;7.584;2024-02-15T03:14:20;3.28;;;1.63;;
79249;SDS011;68679;51.030;7.584;2024-02-15T03:16:46;3.83;;;1.70;;
79249;SDS011;68679;51.030;7.584;2024-02-15T03:19:11;4.40;;;1.60;;
79249;SDS011;68679;51.030;7.584;2024-02-15T03:21:37;2.60;;;1.45;;
79249;SDS011;68679;51.030;7.584;2024-02-15T03:24:02;3.10;;;1.38;;
79249;SDS011;68679;51.030;7.584;2024-02-15T03:26:31;4.18;;;1.50;;
79249;SDS011;68679;51.030;7.584;2024-02-15T03:29:03;3.88;;;1.90;;
79249;SDS011;68679;51.030;7.584;2024-02-15T03:31:29;3.55;;;1.65;;
79249;SDS011;68679;51.030;7.584;2024-02-15T03:33:58;4.80;;;1.85;;
79249;SDS011;68679;51.030;7.584;2024-02-15T03:36:24;3.05;;;1.60;;
79249;SDS011;68679;51.030;7.584;2024-02-15T03:38:49;3.20;;;1.58;;
79249;SDS011;68679;51.030;7.584;2024-02-15T03:41:14;4.07;;;1.57;;
79249;SDS011;68679;51.030;7.584;2024-02-15T03:43:40;3.40;;;1.70;;
79249;SDS011;68679;51.030;7.584;2024-02-15T03:46:05;3.00;;;1.60;;
79249;SDS011;68679;51.030;7.584;2024-02-15T03:48:32;3.08;;;1.70;;
79249;SDS011;68679;51.030;7.584;2024-02-15T03:50:57;4.15;;;1.90;;
79249;SDS011;68679;51.030;7.584;2024-02-15T03:53:23;3.03;;;1.75;;
79249;SDS011;68679;51.030;7.584;2024-02-15T03:55:48;2.40;;;1.60;;
79249;SDS011;68679;51.030;7.584;2024-02-15T03:58:14;5.27;;;1.53;;
79249;SDS011;68679;51.030;7.584;2024-02-15T04:00:40;3.35;;;1.45;;
79249;SDS011;68679;51.030;7.584;2024-02-15T04:03:05;3.60;;;1.73;;
79249;SDS011;68679;51.030;7.584;2024-02-15T04:05:30;4.83;;;1.67;;
79249;SDS011;68679;51.030;7.584;2024-02-15T04:07:56;6.00;;;1.60;;
79249;SDS011;68679;51.030;7.584;2024-02-15T04:10:21;3.27;;;1.73;;
79249;SDS011;68679;51.030;7.584;2024-02-15T04:12:47;4.05;;;2.13;;
79249;SDS011;68679;51.030;7.584;2024-02-15T04:15:12;5.82;;;1.98;;
79249;SDS011;68679;51.030;7.584;2024-02-15T04:17:41;3.67;;;1.55;;
79249;SDS011;68679;51.030;7.584;2024-02-15T04:20:07;9.35;;;1.92;;
79249;SDS011;68679;51.030;7.584;2024-02-15T04:22:34;2.78;;;1.40;;
79249;SDS011;68679;51.030;7.584;2024-02-15T04:25:03;3.95;;;1.58;;
79249;SDS011;68679;51.030;7.584;2024-02-15T04:27:33;2.50;;;1.27;;
79249;SDS011;68679;51.030;7.584;2024-02-15T04:29:59;4.05;;;1.85;;
79249;SDS011;68679;51.030;7.584;2024-02-15T04:32:24;4.90;;;1.75;;
79249;SDS011;68679;51.030;7.584;2024-02-15T04:34:49;4.80;;;2.00;;
79249;SDS011;68679;51.030;7.584;2024-02-15T04:37:15;2.83;;;1.43;;
79249;SDS011;68679;51.030;7.584;2024-02-15T04:39:41;4.10;;;1.70;;
79249;SDS011;68679;51.030;7.584;2024-02-15T04:42:07;3.90;;;1.80;;
79249;SDS011;68679;51.030;7.584;2024-02-15T04:44:36;3.78;;;2.15;;
79249;SDS011;68679;51.030;7.584;2024-02-15T04:47:02;3.15;;;1.67;;
79249;SDS011;68679;51.030;7.584;2024-02-15T04:49:29;3.33;;;1.63;;
79249;SDS011;68679;51.030;7.584;2024-02-15T04:51:54;3.45;;;1.70;;
79249;SDS011;68679;51.030;7.584;2024-02-15T04:54:20;6.07;;;1.88;;
79249;SDS011;68679;51.030;7.584;2024-02-15T04:56:46;6.35;;;1.60;;
79249;SDS011;68679;51.030;7.584;2024-02-15T04:59:11;7.63;;;1.97;;
79249;SDS011;68679;51.030;7.584;2024-02-15T05:01:40;4.90;;;1.70;;
79249;SDS011;68679;51.030;7.584;2024-02-15T05:04:12;8.75;;;2.03;;
79249;SDS011;68679;51.030;7.584;2024-02-15T05:06:38;4.13;;;1.55;;
79249;SDS011;68679;51.030;7.584;2024-02-15T05:09:04;2.33;;;1.50;;
79249;SDS011;68679;51.030;7.584;2024-02-15T05:11:34;3.65;;;1.33;;
79249;SDS011;68679;51.030;7.584;2024-02-15T05:14:02;3.60;;;1.50;;
79249;SDS011;68679;51.030;7.584;2024-02-15T05:16:29;4.78;;;1.88;;
79249;SDS011;68679;51.030;7.584;2024-02-15T05:18:56;3.42;;;1.58;;
79249;SDS011;68679;51.030;7.584;2024-02-15T05:21:21;4.33;;;1.70;;
79249;SDS011;68679;51.030;7.584;2024-02-15T05:23:47;5.95;;;2.20;;
79249;SDS011;68679;51.030;7.584;2024-02-15T05:26:13;4.38;;;1.80;;
79249;SDS011;68679;51.030;7.584;2024-02-15T05:28:41;4.38;;;1.90;;
79249;SDS011;68679;51.030;7.584;2024-02-15T05:31:12;4.67;;;1.83;;
79249;SDS011;68679;51.030;7.584;2024-02-15T05:33:45;3.83;;;1.58;;
79249;SDS011;68679;51.030;7.584;2024-02-15T05:36:16;4.68;;;2.10;;
79249;SDS011;68679;51.030;7.584;2024-02-15T05:38:50;5.80;;;1.90;;
79249;SDS011;68679;51.030;7.584;2024-02-15T05:41:17;3.78;;;2.00;;
79249;SDS011;68679;51.030;7.584;2024-02-15T05:43:44;6.13;;;1.83;;
79249;SDS011;68679;51.030;7.584;2024-02-15T05:46:09;3.57;;;1.73;;
79249;SDS011;68679;51.030;7.584;2024-02-15T05:48:36;5.63;;;1.55;;
79249;SDS011;68679;51.030;7.584;2024-02-15T05:51:05;4.47;;;2.13;;
79249;SDS011;68679;51.030;7.584;2024-02-15T05:53:31;4.95;;;2.55;;
79249;SDS011;68679;51.030;7.584;2024-02-15T05:56:04;2.53;;;1.50;;
79249;SDS011;68679;51.030;7.584;2024-02-15T05:58:31;2.97;;;1.75;;
79249;SDS011;68679;51.030;7.584;2024-02-15T06:00:58;4.25;;;1.95;;
79249;SDS011;68679;51.030;7.584;2024-02-15T06:03:29;6.72;;;2.05;;
79249;SDS011;68679;51.030;7.584;2024-02-15T06:05:56;3.13;;;1.80;;
79249;SDS011;68679;51.030;7.584;2024-02-15T06:08:26;3.00;;;1.52;;
79249;SDS011;68679;51.030;7.584;2024-02-15T06:10:52;2.78;;;1.55;;
79249;SDS011;68679;51.030;7.584;2024-02-15T06:13:18;5.97;;;2.15;;
79249;SDS011;68679;51.030;7.584;2024-02-15T06:15:44;4.43;;;2.00;;
79249;SDS011;68679;51.030;7.584;2024-02-15T06:18:14;2.78;;;1.65;;
79249;SDS011;68679;51.030;7.584;2024-02-15T06:20:41;4.53;;;2.00;;
79249;SDS011;68679;51.030;7.584;2024-02-15T06:23:07;4.10;;;1.80;;
79249;SDS011;68679;51.030;7.584;2024-02-15T06:25:34;3.03;;;1.40;;
79249;SDS011;68679;51.030;7.584;2024-02-15T06:28:00;3.47;;;1.80;;
79249;SDS011;68679;51.030;7.584;2024-02-15T06:30:27;5.22;;;2.17;;
79249;SDS011;68679;51.030;7.584;2024-02-15T06:33:14;3.53;;;1.75;;
79249;SDS011;68679;51.030;7.584;2024-02-15T06:38:41;6.63;;;2.17;;
79249;SDS011;68679;51.030;7.584;2024-02-15T06:41:25;3.15;;;1.55;;
79249;SDS011;68679;51.030;7.584;2024-02-15T06:43:53;4.68;;;2.25;;
79249;SDS011;68679;51.030;7.584;2024-02-15T06:46:18;3.37;;;1.97;;
79249;SDS011;68679;51.030;7.584;2024-02-15T06:48:44;4.40;;;2.10;;
79249;SDS011;68679;51.030;7.584;2024-02-15T06:51:12;3.47;;;2.20;;
79249;SDS011;68679;51.030;7.584;2024-02-15T06:53:39;3.97;;;2.45;;
79249;SDS011;68679;51.030;7.584;2024-02-15T06:56:04;4.80;;;2.10;;
79249;SDS011;68679;51.030;7.584;2024-02-15T06:58:30;4.20;;;2.13;;
79249;SDS011;68679;51.030;7.584;2024-02-15T07:00:55;4.67;;;2.30;;
79249;SDS011;68679;51.030;7.584;2024-02-15T07:03:21;4.18;;;2.20;;
79249;SDS011;68679;51.030;7.584;2024-02-15T07:05:47;3.95;;;2.10;;
79249;SDS011;68679;51.030;7.584;2024-02-15T07:08:13;4.28;;;2.58;;
79249;SDS011;68679;51.030;7.584;2024-02-15T07:10:39;7.60;;;2.60;;
79249;SDS011;68679;51.030;7.584;2024-02-15T07:13:04;6.68;;;2.78;;
79249;SDS011;68679;51.030;7.584;2024-02-15T07:15:31;6.18;;;2.85;;
79249;SDS011;68679;51.030;7.584;2024-02-15T07:17:58;5.32;;;2.60;;
79249;SDS011;68679;51.030;7.584;2024-02-15T07:20:24;4.65;;;2.00;;
79249;SDS011;68679;51.030;7.584;2024-02-15T07:22:49;5.88;;;3.35;;
79249;SDS011;68679;51.030;7.584;2024-02-15T07:25:14;5.07;;;2.63;;
79249;SDS011;68679;51.030;7.584;2024-02-15T07:27:40;5.43;;;3.22;;
79249;SDS011;68679;51.030;7.584;2024-02-15T07:30:06;10.27;;;4.43;;
79249;SDS011;68679;51.030;7.584;2024-02-15T07:32:33;5.65;;;3.20;;
79249;SDS011;68679;51.030;7.584;2024-02-15T07:35:00;5.30;;;3.42;;
79249;SDS011;68679;51.030;7.584;2024-02-15T07:37:25;4.88;;;2.95;;
79249;SDS011;68679;51.030;7.584;2024-02-15T07:39:51;5.63;;;3.23;;
79249;SDS011;68679;51.030;7.584;2024-02-15T07:42:17;7.63;;;3.20;;
79249;SDS011;68679;51.030;7.584;2024-02-15T07:44:42;9.80;;;3.53;;
79249;SDS011;68679;51.030;7.584;2024-02-15T07:47:08;8.55;;;3.58;;
79249;SDS011;68679;51.030;7.584;2024-02-15T07:49:35;8.50;;;3.28;;
79249;SDS011;68679;51.030;7.584;2024-02-15T07:52:01;10.05;;;4.57;;
79249;SDS011;68679;51.030;7.584;2024-02-15T07:54:29;7.63;;;3.35;;
79249;SDS011;68679;51.030;7.584;2024-02-15T07:56:55;9.13;;;3.85;;
79249;SDS011;68679;51.030;7.584;2024-02-15T07:59:21;6.47;;;3.25;;
79249;SDS011;68679;51.030;7.584;2024-02-15T08:01:46;7.05;;;3.25;;
79249;SDS011;68679;51.030;7.584;2024-02-15T08:04:14;8.90;;;3.28;;
79249;SDS011;68679;51.030;7.584;2024-02-15T08:06:40;10.05;;;3.70;;
79249;SDS011;68679;51.030;7.584;2024-02-15T08:09:06;7.53;;;3.33;;
79249;SDS011;68679;51.030;7.584;2024-02-15T08:11:32;6.43;;;4.00;;
79249;SDS011;68679;51.030;7.584;2024-02-15T08:13:57;8.30;;;4.20;;
79249;SDS011;68679;51.030;7.584;2024-02-15T08:16:24;8.68;;;3.97;;
79249;SDS011;68679;51.030;7.584;2024-02-15T08:18:52;6.75;;;4.10;;
79249;SDS011;68679;51.030;7.584;2024-02-15T08:21:24;11.10;;;4.53;;
79249;SDS011;68679;51.030;7.584;2024-02-15T08:23:51;10.18;;;4.32;;
79249;SDS011;68679;51.030;7.584;2024-02-15T08:26:16;26.80;;;12.63;;
79249;SDS011;68679;51.030;7.584;2024-02-15T08:28:42;20.87;;;8.60;;
79249;SDS011;68679;51.030;7.584;2024-02-15T08:31:07;13.18;;;6.63;;
79249;SDS011;68679;51.030;7.584;2024-02-15T08:33:35;9.40;;;5.05;;
79249;SDS011;68679;51.030;7.584;2024-02-15T08:36:06;12.50;;;5.43;;
79249;SDS011;68679;51.030;7.584;2024-02-15T08:38:32;7.68;;;4.63;;
79249;SDS011;68679;51.030;7.584;2024-02-15T08:40:59;10.98;;;5.35;;
79249;SDS011;68679;51.030;7.584;2024-02-15T08:43:24;12.23;;;5.43;;
79249;SDS011;68679;51.030;7.584;2024-02-15T08:45:49;12.53;;;5.00;;
79249;SDS011;68679;51.030;7.584;2024-02-15T08:48:15;8.98;;;5.55;;
79249;SDS011;68679;51.030;7.584;2024-02-15T08:50:41;8.85;;;4.05;;
79249;SDS011;68679;51.030;7.584;2024-02-15T08:53:06;7.28;;;3.92;;
79249;SDS011;68679;51.030;7.584;2024-02-15T08:55:31;8.47;;;3.23;;
79249;SDS011;68679;51.030;7.584;2024-02-15T08:58:00;6.85;;;3.38;;
79249;SDS011;68679;51.030;7.584;2024-02-15T09:00:27;13.25;;;5.28;;
79249;SDS011;68679;51.030;7.584;2024-02-15T09:02:52;19.13;;;7.80;;
79249;SDS011;68679;51.030;7.584;2024-02-15T09:05:18;16.85;;;8.88;;
79249;SDS011;68679;51.030;7.584;2024-02-15T09:07:44;14.52;;;6.10;;
79249;SDS011;68679;51.030;7.584;2024-02-15T09:10:16;10.60;;;4.57;;
79249;SDS011;68679;51.030;7.584;2024-02-15T09:12:42;10.18;;;4.75;;
79249;SDS011;68679;51.030;7.584;2024-02-15T09:15:09;8.63;;;5.32;;
79249;SDS011;68679;51.030;7.584;2024-02-15T09:17:39;4.32;;;2.20;;
79249;SDS011;68679;51.030;7.584;2024-02-15T09:20:07;4.47;;;2.28;;
79249;SDS011;68679;51.030;7.584;2024-02-15T09:22:39;5.78;;;2.75;;
79249;SDS011;68679;51.030;7.584;2024-02-15T09:25:05;7.32;;;2.33;;
79249;SDS011;68679;51.030;7.584;2024-02-15T09:27:31;4.80;;;2.05;;
79249;SDS011;68679;51.030;7.584;2024-02-15T09:29:56;7.50;;;2.73;;
79249;SDS011;68679;51.030;7.584;2024-02-15T09:32:21;5.07;;;2.70;;
79249;SDS011;68679;51.030;7.584;2024-02-15T09:34:47;6.60;;;2.90;;
79249;SDS011;68679;51.030;7.584;2024-02-15T09:37:12;3.85;;;2.40;;
79249;SDS011;68679;51.030;7.584;2024-02-15T09:39:39;7.13;;;2.72;;
79249;SDS011;68679;51.030;7.584;2024-02-15T09:42:04;4.60;;;2.40;;
79249;SDS011;68679;51.030;7.584;2024-02-15T09:44:30;6.63;;;3.28;;
79249;SDS011;68679;51.030;7.584;2024-02-15T09:47:00;4.30;;;1.80;;
79249;SDS011;68679;51.030;7.584;2024-02-15T09:49:35;6.40;;;2.42;;
79249;SDS011;68679;51.030;7.584;2024-02-15T09:52:02;7.53;;;3.22;;
79249;SDS011;68679;51.030;7.584;2024-02-15T09:54:28;3.67;;;1.92;;
79249;SDS011;68679;51.030;7.584;2024-02-15T09:56:54;4.45;;;1.80;;
79249;SDS011;68679;51.030;7.584;2024-02-15T09:59:22;5.60;;;1.65;;
79249;SDS011;68679;51.030;7.584;2024-02-15T10:01:48;4.68;;;2.10;;
79249;SDS011;68679;51.030;7.584;2024-02-15T10:04:13;5.18;;;1.63;;
79249;SDS011;68679;51.030;7.584;2024-02-15T10:06:41;6.07;;;1.50;;
79249;SDS011;68679;51.030;7.584;2024-02-15T10:11:59;3.00;;;1.50;;
79249;SDS011;68679;51.030;7.584;2024-02-15T10:14:29;4.80;;;1.33;;
79249;SDS011;68679;51.030;7.584;2024-02-15T10:17:00;2.38;;;1.52;;
79249;SDS011;68679;51.030;7.584;2024-02-15T10:19:31;3.80;;;1.20;;
79249;SDS011;68679;51.030;7.584;2024-02-15T10:22:05;4.38;;;1.30;;
79249;SDS011;68679;51.030;7.584;2024-02-15T10:24:32;2.35;;;1.13;;
79249;SDS011;68679;51.030;7.584;2024-02-15T10:27:03;9.88;;;1.75;;
79249;SDS011;68679;51.030;7.584;2024-02-15T10:29:30;3.42;;;1.33;;
79249;SDS011;68679;51.030;7.584;2024-02-15T10:32:00;4.43;;;1.08;;
79249;SDS011;68679;51.030;7.584;2024-02-15T10:34:27;4.28;;;1.52;;
79249;SDS011;68679;51.030;7.584;2024-02-15T10:36:53;6.57;;;1.25;;
79249;SDS011;68679;51.030;7.584;2024-02-15T10:39:37;2.58;;;1.15;;
79249;SDS011;68679;51.030;7.584;2024-02-15T10:42:02;2.23;;;1.10;;
79249;SDS011;68679;51.030;7.584;2024-02-15T10:44:28;3.85;;;1.70;;
79249;SDS011;68679;51.030;7.584;2024-02-15T10:46:53;4.77;;;1.60;;
79249;SDS011;68679;51.030;7.584;2024-02-15T10:49:19;5.53;;;1.50;;
79249;SDS011;68679;51.030;7.584;2024-02-15T10:51:56;3.78;;;1.30;;
79249;SDS011;68679;51.030;7.584;2024-02-15T10:54:38;4.30;;;1.45;;
79249;SDS011;68679;51.030;7.584;2024-02-15T10:57:11;5.72;;;2.40;;
79249;SDS011;68679;51.030;7.584;2024-02-15T10:59:39;5.30;;;1.90;;
79249;SDS011;68679;51.030;7.584;2024-02-15T11:02:19;5.22;;;1.52;;
79249;SDS011;68679;51.030;7.584;2024-02-15T11:04:54;3.70;;;1.23;;
79249;SDS011;68679;51.030;7.584;2024-02-15T11:07:24;4.10;;;1.50;;
79249;SDS011;68679;51.030;7.584;2024-02-15T11:09:52;4.22;;;1.70;;
79249;SDS011;68679;51.030;7.584;2024-02-15T11:12:18;4.70;;;1.35;;
79249;SDS011;68679;51.030;7.584;2024-02-15T11:14:45;5.30;;;1.42;;
79249;SDS011;68679;51.030;7.584;2024-02-15T11:17:10;6.38;;;1.58;;
79249;SDS011;68679;51.030;7.584;2024-02-15T11:22:09;3.88;;;1.23;;
79249;SDS011;68679;51.030;7.584;2024-02-15T11:27:23;2.13;;;0.95;;
79249;SDS011;68679;51.030;7.584;2024-02-15T11:29:52;3.17;;;0.95;;
79249;SDS011;68679;51.030;7.584;2024-02-15T11:32:34;3.30;;;1.30;;
79249;SDS011;68679;51.030;7.584;2024-02-15T11:35:22;2.85;;;1.10;;
79249;SDS011;68679;51.030;7.584;2024-02-15T11:42:49;3.13;;;1.10;;
79249;SDS011;68679;51.030;7.584;2024-02-15T11:45:17;6.13;;;1.23;;
79249;SDS011;68679;51.030;7.584;2024-02-15T11:47:43;2.35;;;1.33;;
79249;SDS011;68679;51.030;7.584;2024-02-15T11:50:15;4.85;;;1.50;;
79249;SDS011;68679;51.030;7.584;2024-02-15T11:52:42;1.88;;;1.25;;
79249;SDS011;68679;51.030;7.584;2024-02-15T11:55:09;1.85;;;1.08;;
79249;SDS011;68679;51.030;7.584;2024-02-15T11:57:57;1.73;;;1.05;;
79249;SDS011;68679;51.030;7.584;2024-02-15T12:00:38;5.07;;;1.15;;
79249;SDS011;68679;51.030;7.584;2024-02-15T12:03:22;2.42;;;1.23;;
79249;SDS011;68679;51.030;7.584;2024-02-15T12:06:07;5.85;;;1.52;;
79249;SDS011;68679;51.030;7.584;2024-02-15T12:08:52;2.40;;;1.30;;
79249;SDS011;68679;51.030;7.584;2024-02-15T12:11:37;4.45;;;1.40;;
79249;SDS011;68679;51.030;7.584;2024-02-15T12:14:22;3.78;;;1.20;;
79249;SDS011;68679;51.030;7.584;2024-02-15T12:17:10;2.90;;;1.10;;
79249;SDS011;68679;51.030;7.584;2024-02-15T12:19:55;4.47;;;1.90;;
79249;SDS011;68679;51.030;7.584;2024-02-15T12:24:56;2.42;;;1.33;;
79249;SDS011;68679;51.030;7.584;2024-02-15T12:27:37;4.72;;;1.73;;
79249;SDS011;68679;51.030;7.584;2024-02-15T12:30:04;2.70;;;1.02;;
79249;SDS011;68679;51.030;7.584;2024-02-15T12:32:31;3.05;;;1.38;;
79249;SDS011;68679;51.030;7.584;2024-02-15T12:35:10;2.95;;;1.63;;
79249;SDS011;68679;51.030;7.584;2024-02-15T12:37:44;5.10;;;1.15;;
79249;SDS011;68679;51.030;7.584;2024-02-15T12:40:19;4.55;;;1.58;;
79249;SDS011;68679;51.030;7.584;2024-02-15T12:42:47;3.05;;;1.15;;
79249;SDS011;68679;51.030;7.584;2024-02-15T12:45:19;4.72;;;1.70;;
79249;SDS011;68679;51.030;7.584;2024-02-15T12:47:55;4.22;;;1.20;;
79249;SDS011;68679;51.030;7.584;2024-02-15T12:50:21;2.85;;;1.20;;
79249;SDS011;68679;51.030;7.584;2024-02-15T12:52:48;4.18;;;1.25;;
79249;SDS011;68679;51.030;7.584;2024-02-15T12:55:15;2.50;;;1.25;;
79249;SDS011;68679;51.030;7.584;2024-02-15T12:57:44;4.43;;;1.13;;
79249;SDS011;68679;51.030;7.584;2024-02-15T13:00:11;2.67;;;0.93;;
79249;SDS011;68679;51.030;7.584;2024-02-15T13:02:46;2.55;;;1.17;;
79249;SDS011;68679;51.030;7.584;2024-02-15T13:05:14;2.85;;;1.10;;
79249;SDS011;68679;51.030;7.584;2024-02-15T13:07:46;3.28;;;1.25;;
79249;SDS011;68679;51.030;7.584;2024-02-15T13:10:12;5.32;;;1.30;;
79249;SDS011;68679;51.030;7.584;2024-02-15T13:12:39;2.00;;;1.10;;
79249;SDS011;68679;51.030;7.584;2024-02-15T13:15:05;2.13;;;0.98;;
79249;SDS011;68679;51.030;7.584;2024-02-15T13:17:36;3.88;;;1.20;;
79249;SDS011;68679;51.030;7.584;2024-02-15T13:20:02;2.65;;;1.20;;
79249;SDS011;68679;51.030;7.584;2024-02-15T13:22:32;2.83;;;0.82;;
79249;SDS011;68679;51.030;7.584;2024-02-15T13:24:59;2.20;;;1.25;;
79249;SDS011;68679;51.030;7.584;2024-02-15T13:27:24;2.87;;;1.40;;
79249;SDS011;68679;51.030;7.584;2024-02-15T13:29:50;5.47;;;1.10;;
79249;SDS011;68679;51.030;7.584;2024-02-15T13:32:15;1.65;;;0.95;;
79249;SDS011;68679;51.030;7.584;2024-02-15T13:34:45;2.78;;;1.13;;
79249;SDS011;68679;51.030;7.584;2024-02-15T13:37:10;2.65;;;1.15;;
79249;SDS011;68679;51.030;7.584;2024-02-15T13:39:38;2.97;;;1.30;;
79249;SDS011;68679;51.030;7.584;2024-02-15T13:42:08;3.78;;;1.33;;
79249;SDS011;68679;51.030;7.584;2024-02-15T13:44:36;3.20;;;0.93;;
79249;SDS011;68679;51.030;7.584;2024-02-15T13:47:01;1.77;;;1.17;;
79249;SDS011;68679;51.030;7.584;2024-02-15T13:49:27;1.70;;;0.90;;
79249;SDS011;68679;51.030;7.584;2024-02-15T13:51:55;4.28;;;1.20;;
79249;SDS011;68679;51.030;7.584;2024-02-15T13:54:20;6.70;;;1.13;;
79249;SDS011;68679;51.030;7.584;2024-02-15T13:56:47;2.72;;;1.40;;
79249;SDS011;68679;51.030;7.584;2024-02-15T13:59:12;1.40;;;0.90;;
79249;SDS011;68679;51.030;7.584;2024-02-15T14:01:38;3.28;;;1.25;;
79249;SDS011;68679;51.030;7.584;2024-02-15T14:04:10;4.63;;;1.35;;
79249;SDS011;68679;51.030;7.584;2024-02-15T14:06:36;2.65;;;1.10;;
79249;SDS011;68679;51.030;7.584;2024-02-15T14:09:02;2.92;;;0.90;;
79249;SDS011;68679;51.030;7.584;2024-02-15T14:11:28;1.50;;;0.90;;
79249;SDS011;68679;51.030;7.584;2024-02-15T14:13:53;4.95;;;1.10;;
79249;SDS011;68679;51.030;7.584;2024-02-15T14:16:23;1.48;;;1.00;;
79249;SDS011;68679;51.030;7.584;2024-02-15T14:18:48;2.60;;;1.20;;
79249;SDS011;68679;51.030;7.584;2024-02-15T14:21:15;3.40;;;1.30;;
79249;SDS011;68679;51.030;7.584;2024-02-15T14:23:41;4.45;;;1.05;;
79249;SDS011;68679;51.030;7.584;2024-02-15T14:26:07;3.53;;;1.00;;
79249;SDS011;68679;51.030;7.584;2024-02-15T14:28:32;2.40;;;1.10;;
79249;SDS011;68679;51.030;7.584;2024-02-15T14:30:57;2.08;;;0.98;;
79249;SDS011;68679;51.030;7.584;2024-02-15T14:33:41;3.97;;;1.25;;
79249;SDS011;68679;51.030;7.584;2024-02-15T14:36:06;4.03;;;1.07;;
79249;SDS011;68679;51.030;7.584;2024-02-15T14:38:33;7.07;;;1.48;;
79249;SDS011;68679;51.030;7.584;2024-02-15T14:40:59;2.08;;;0.90;;
79249;SDS011;68679;51.030;7.584;2024-02-15T14:43:26;3.90;;;1.23;;
79249;SDS011;68679;51.030;7.584;2024-02-15T14:45:51;4.95;;;1.10;;
79249;SDS011;68679;51.030;7.584;2024-02-15T14:48:18;5.78;;;1.40;;
79249;SDS011;68679;51.030;7.584;2024-02-15T14:50:45;1.98;;;1.20;;
79249;SDS011;68679;51.030;7.584;2024-02-15T14:53:11;2.95;;;1.00;;
79249;SDS011;68679;51.030;7.584;2024-02-15T14:55:38;2.38;;;1.20;;
79249;SDS011;68679;51.030;7.584;2024-02-15T14:58:04;3.40;;;1.10;;
79249;SDS011;68679;51.030;7.584;2024-02-15T15:00:32;3.40;;;1.25;;
79249;SDS011;68679;51.030;7.584;2024-02-15T15:02:58;7.22;;;1.73;;
79249;SDS011;68679;51.030;7.584;2024-02-15T15:05:23;2.13;;;1.23;;
79249;SDS011;68679;51.030;7.584;2024-02-15T15:08:07;2.13;;;1.30;;
79249;SDS011;68679;51.030;7.584;2024-02-15T15:10:51;1.23;;;0.90;;
79249;SDS011;68679;51.030;7.584;2024-02-15T15:13:35;3.42;;;0.90;;